Time;durP1;ratioP1;P1;durP2;ratioP2;P2;SDS_P1;SDS_P2;PMS_P1;PMS_P2;Temp;Humidity;BMP_temperature;BMP_pressure;BME280_temperature;BME280_humidity;BME280_pressure;Samples;Min_cycle;Max_cycle;Signal;HPM_P1;HPM_P2
2024/02/08 00:00:47;;;;;;;1.33;1.02;;;22.80;46.00;;;;;;5089825;28;20213;-54
2024/02/08 00:03:14;;;;;;;1.10;1.00;;;22.80;45.90;;;;;;5091906;28;20242;-58
2024/02/08 00:05:41;;;;;;;1.65;1.23;;;22.90;45.90;;;;;;5091930;28;20210;-55
2024/02/08 00:08:11;;;;;;;1.20;1.10;;;22.90;45.90;;;;;;5091397;28;20192;-57
2024/02/08 00:10:38;;;;;;;1.20;1.10;;;23.00;45.90;;;;;;5091968;28;20301;-54
2024/02/08 00:13:05;;;;;;;1.00;0.90;;;23.00;45.70;;;;;;5091357;28;20744;-54
2024/02/08 00:15:34;;;;;;;1.10;1.00;;;23.10;45.70;;;;;;5091269;28;20224;-57
2024/02/08 00:18:01;;;;;;;4.25;1.23;;;23.10;45.60;;;;;;5092100;28;20280;-53
2024/02/08 00:20:28;;;;;;;1.25;0.90;;;23.10;45.60;;;;;;5090299;28;20641;-52
2024/02/08 00:22:55;;;;;;;1.50;1.08;;;23.10;45.60;;;;;;5090911;28;20309;-55
2024/02/08 00:25:24;;;;;;;0.80;0.80;;;23.10;45.60;;;;;;5091424;28;20313;-52
2024/02/08 00:27:52;;;;;;;1.02;0.93;;;23.10;45.60;;;;;;5091578;28;20281;-55
2024/02/08 00:30:19;;;;;;;1.13;1.00;;;23.00;45.60;;;;;;5089190;28;20757;-57
2024/02/08 00:32:48;;;;;;;1.17;1.00;;;23.00;45.60;;;;;;5091562;28;20190;-57
2024/02/08 00:35:17;;;;;;;0.85;0.80;;;23.00;45.60;;;;;;5091693;28;20240;-55
2024/02/08 00:37:47;;;;;;;0.80;0.80;;;23.00;45.70;;;;;;5092844;28;20200;-53
2024/02/08 00:40:14;;;;;;;1.20;0.88;;;23.00;45.70;;;;;;5095085;28;20218;-54
2024/02/08 00:42:41;;;;;;;0.90;0.90;;;22.90;45.60;;;;;;5095009;28;20216;-54
2024/02/08 00:45:09;;;;;;;0.95;0.85;;;22.90;45.70;;;;;;5092975;28;20628;-56
2024/02/08 00:47:36;;;;;;;0.93;0.70;;;22.90;45.70;;;;;;5095125;28;20182;-55
2024/02/08 00:50:05;;;;;;;0.90;0.80;;;22.90;45.80;;;;;;5094530;28;20190;-55
2024/02/08 00:52:33;;;;;;;1.13;0.73;;;22.90;45.80;;;;;;5094585;28;20194;-57
2024/02/08 00:55:00;;;;;;;1.10;1.00;;;22.90;45.90;;;;;;5094557;28;20933;-58
2024/02/08 00:57:28;;;;;;;1.15;0.70;;;22.90;45.90;;;;;;5095018;28;20182;-54
2024/02/08 00:59:55;;;;;;;1.60;0.80;;;22.80;45.90;;;;;;5092215;28;20186;-57
2024/02/08 01:02:22;;;;;;;0.95;0.93;;;22.80;45.90;;;;;;5095107;28;20276;-56
2024/02/08 01:04:49;;;;;;;0.70;0.70;;;22.80;45.90;;;;;;5094861;28;20189;-54
2024/02/08 01:07:17;;;;;;;2.40;0.70;;;22.80;46.00;;;;;;5094325;28;20210;-54
2024/02/08 01:09:44;;;;;;;1.33;0.70;;;22.80;46.00;;;;;;5094402;28;20569;-53
2024/02/08 01:12:12;;;;;;;0.93;0.80;;;22.80;46.10;;;;;;5094884;28;20651;-55
2024/02/08 01:14:39;;;;;;;0.80;0.80;;;22.80;46.10;;;;;;5093989;28;20262;-57
2024/02/08 01:17:05;;;;;;;0.90;0.70;;;22.80;46.10;;;;;;5092772;28;20220;-54
2024/02/08 01:19:32;;;;;;;0.90;0.70;;;22.80;46.20;;;;;;5093999;28;20285;-56
2024/02/08 01:21:59;;;;;;;1.05;0.80;;;22.80;46.10;;;;;;5093791;28;20611;-55
2024/02/08 01:24:28;;;;;;;0.60;0.60;;;22.80;46.10;;;;;;5094344;28;20520;-55
2024/02/08 01:26:56;;;;;;;1.48;0.88;;;22.90;46.20;;;;;;5092188;28;20221;-55
2024/02/08 01:29:24;;;;;;;0.60;0.50;;;22.90;46.00;;;;;;5093841;28;20194;-53
2024/02/08 01:31:51;;;;;;;0.50;0.50;;;22.90;45.90;;;;;;5092517;28;20645;-53
2024/02/08 01:34:18;;;;;;;0.70;0.60;;;23.00;45.90;;;;;;5093826;28;20719;-55
2024/02/08 01:36:46;;;;;;;0.50;0.50;;;23.00;45.80;;;;;;5093661;28;20210;-53
2024/02/08 01:39:13;;;;;;;0.70;0.70;;;23.10;45.80;;;;;;5092753;28;20220;-55
2024/02/08 01:41:42;;;;;;;0.77;0.60;;;23.10;45.70;;;;;;5093850;28;20220;-56
2024/02/08 01:44:12;;;;;;;0.77;0.77;;;23.10;45.70;;;;;;5091689;28;20225;-53
2024/02/08 01:46:40;;;;;;;0.57;0.57;;;23.10;45.60;;;;;;5093914;28;20713;-56
2024/02/08 01:49:09;;;;;;;0.60;0.60;;;23.10;45.70;;;;;;5093633;28;20186;-55
2024/02/08 01:51:39;;;;;;;0.65;0.52;;;23.10;45.70;;;;;;5091820;28;20209;-57
2024/02/08 01:54:08;;;;;;;0.60;0.60;;;23.00;45.70;;;;;;5093775;28;20192;-54
2024/02/08 01:56:36;;;;;;;0.85;0.70;;;23.10;45.90;;;;;;5091756;28;20702;-54
2024/02/08 01:59:05;;;;;;;0.70;0.70;;;23.00;45.90;;;;;;5092912;28;20194;-54
2024/02/08 02:01:32;;;;;;;0.70;0.70;;;23.00;46.50;;;;;;5093750;28;20210;-55
2024/02/08 02:04:00;;;;;;;0.50;0.50;;;22.90;45.80;;;;;;5093281;28;20684;-53
2024/02/08 02:06:27;;;;;;;0.70;0.70;;;22.90;45.90;;;;;;5091123;28;20733;-54
2024/02/08 02:08:57;;;;;;;0.50;0.50;;;22.90;45.90;;;;;;5092468;28;20209;-52
2024/02/08 02:11:35;;;;;;;0.60;0.60;;;22.90;45.90;;;;;;5092659;28;20242;-55
2024/02/08 02:14:05;;;;;;;0.70;0.70;;;22.90;46.00;;;;;;5090978;28;20603;-57
2024/02/08 02:16:32;;;;;;;0.50;0.50;;;22.90;46.00;;;;;;5093519;28;20221;-54
2024/02/08 02:18:59;;;;;;;0.73;0.65;;;22.90;46.10;;;;;;5093070;28;20182;-55
2024/02/08 02:21:27;;;;;;;0.93;0.50;;;22.80;46.00;;;;;;5090994;28;20775;-58
2024/02/08 02:23:55;;;;;;;0.52;0.47;;;22.80;46.10;;;;;;5092903;28;20702;-57
2024/02/08 02:26:22;;;;;;;0.52;0.52;;;22.80;46.10;;;;;;5093362;28;20309;-57
2024/02/08 02:28:49;;;;;;;0.80;0.60;;;22.80;46.10;;;;;;5090819;28;20222;-54
2024/02/08 02:31:16;;;;;;;0.52;0.52;;;22.80;46.80;;;;;;5093205;28;20210;-55
2024/02/08 02:33:44;;;;;;;0.52;0.52;;;22.80;46.20;;;;;;5092800;28;20284;-55
2024/02/08 02:36:14;;;;;;;0.60;0.52;;;22.80;46.20;;;;;;5092701;28;20217;-54
2024/02/08 02:38:44;;;;;;;0.85;0.65;;;22.80;46.20;;;;;;5092806;28;20653;-58
2024/02/08 02:41:11;;;;;;;0.50;0.50;;;22.80;46.30;;;;;;5092769;28;20244;-57
2024/02/08 02:43:39;;;;;;;0.80;0.68;;;22.80;46.20;;;;;;5090779;28;20232;-56
2024/02/08 02:46:06;;;;;;;0.73;0.73;;;22.80;46.30;;;;;;5092977;28;20301;-57
2024/02/08 02:48:34;;;;;;;0.70;0.70;;;22.90;46.30;;;;;;5092649;28;20271;-54
2024/02/08 02:51:01;;;;;;;0.68;0.50;;;22.90;46.20;;;;;;5092436;28;20218;-53
2024/02/08 02:53:30;;;;;;;0.47;0.47;;;22.90;46.10;;;;;;5090736;28;20190;-54
2024/02/08 02:55:59;;;;;;;0.63;0.50;;;23.00;46.10;;;;;;5092507;28;20221;-54
2024/02/08 02:58:26;;;;;;;0.60;0.60;;;23.10;46.10;;;;;;5091809;28;20595;-54
2024/02/08 03:01:04;;;;;;;0.60;0.60;;;23.00;45.90;;;;;;5090379;28;20210;-53
2024/02/08 03:03:37;;;;;;;0.57;0.50;;;23.10;45.90;;;;;;5092354;28;20746;-53
2024/02/08 03:06:12;;;;;;;1.52;0.68;;;23.10;45.90;;;;;;5091899;28;20275;-56
2024/02/08 03:08:41;;;;;;;1.10;0.68;;;23.10;45.90;;;;;;5091970;28;20194;-55
2024/02/08 03:11:11;;;;;;;1.05;0.70;;;23.00;45.80;;;;;;5092800;28;20214;-57
2024/02/08 03:13:41;;;;;;;0.70;0.60;;;23.00;45.90;;;;;;5092094;28;20245;-53
2024/02/08 03:16:10;;;;;;;0.85;0.63;;;23.00;46.00;;;;;;5090247;28;20632;-57
2024/02/08 03:18:43;;;;;;;1.10;0.70;;;23.00;46.00;;;;;;5092166;28;20201;-56
2024/02/08 03:21:10;;;;;;;2.38;0.80;;;23.00;46.10;;;;;;5092030;28;20213;-55
2024/02/08 03:23:38;;;;;;;1.15;0.70;;;22.90;46.10;;;;;;5090518;28;20206;-55
2024/02/08 03:26:07;;;;;;;2.90;1.20;;;22.90;46.10;;;;;;5092509;28;20317;-52
2024/02/08 03:28:35;;;;;;;1.10;0.80;;;22.90;46.20;;;;;;5091481;28;20752;-55
2024/02/08 03:31:02;;;;;;;2.70;0.80;;;22.90;46.20;;;;;;5090013;28;20210;-55
2024/02/08 03:33:29;;;;;;;2.67;0.80;;;22.90;46.20;;;;;;5092338;28;20190;-55
2024/02/08 03:35:56;;;;;;;3.70;1.02;;;22.90;46.20;;;;;;5091952;28;20301;-54
2024/02/08 03:38:24;;;;;;;7.03;0.90;;;22.90;46.30;;;;;;5090051;28;20204;-54
2024/02/08 03:40:51;;;;;;;2.80;0.93;;;22.80;46.90;;;;;;5092270;28;20221;-56
2024/02/08 03:43:17;;;;;;;2.55;1.08;;;22.80;46.30;;;;;;5091776;28;20647;-54
2024/02/08 03:45:47;;;;;;;5.22;1.10;;;22.80;46.30;;;;;;5090480;28;20283;-53
2024/02/08 03:48:14;;;;;;;2.35;1.05;;;22.80;46.40;;;;;;5092018;28;20193;-57
2024/02/08 03:50:41;;;;;;;3.42;1.27;;;22.80;46.40;;;;;;5089960;28;20218;-54
2024/02/08 03:53:12;;;;;;;4.18;1.27;;;22.80;46.40;;;;;;5091901;28;20720;-55
2024/02/08 03:55:43;;;;;;;5.72;1.30;;;22.80;46.50;;;;;;5090463;28;20602;-53
2024/02/08 03:58:13;;;;;;;5.25;1.42;;;22.80;46.50;;;;;;5091005;28;20267;-54
2024/02/08 04:00:42;;;;;;;5.30;1.20;;;22.80;46.50;;;;;;5092023;28;20218;-53
2024/02/08 04:03:14;;;;;;;5.63;1.23;;;22.80;46.40;;;;;;5091875;28;20198;-54
2024/02/08 04:05:58;;;;;;;3.65;1.38;;;22.80;46.50;;;;;;5090258;28;20233;-57
2024/02/08 04:09:05;;;;;;;5.43;1.60;;;22.80;46.40;;;;;;5071404;28;20244;-52
2024/02/08 04:55:12;;;;;;;5.72;1.65;;;22.90;46.40;;;;;;5094674;28;20189;-54
2024/02/08 04:57:39;;;;;;;7.20;1.85;;;22.80;46.40;;;;;;5094597;28;20193;-55
2024/02/08 05:00:12;;;;;;;7.60;2.05;;;22.80;46.40;;;;;;5092917;28;20190;-52
2024/02/08 05:02:40;;;;;;;5.20;2.17;;;22.80;46.40;;;;;;5094945;28;20194;-56
2024/02/08 05:05:11;;;;;;;6.80;2.38;;;22.80;46.40;;;;;;5094490;28;20275;-55
2024/02/08 05:07:39;;;;;;;6.80;1.95;;;22.80;46.50;;;;;;5094896;28;20218;-56
2024/02/08 05:10:10;;;;;;;7.80;1.95;;;22.80;47.20;;;;;;5094425;28;20186;-55
2024/02/08 05:12:37;;;;;;;10.48;2.60;;;22.80;46.50;;;;;;5094284;28;20197;-56
2024/02/08 05:15:06;;;;;;;10.68;2.75;;;22.80;46.50;;;;;;5092515;28;20225;-55
2024/02/08 05:17:33;;;;;;;7.10;1.85;;;22.80;46.50;;;;;;5094761;28;20217;-53
2024/02/08 05:20:00;;;;;;;6.32;2.05;;;22.80;46.60;;;;;;5094000;28;20198;-52
2024/02/08 05:22:27;;;;;;;7.97;2.47;;;22.70;46.40;;;;;;5094703;28;20224;-53
2024/02/08 05:24:55;;;;;;;10.07;2.65;;;22.80;46.50;;;;;;5093877;28;20257;-55
2024/02/08 05:27:22;;;;;;;9.02;2.42;;;22.80;46.50;;;;;;5094284;28;20225;-53
2024/02/08 05:29:49;;;;;;;9.80;2.30;;;22.80;46.50;;;;;;5093872;28;20182;-57
2024/02/08 05:32:22;;;;;;;6.82;2.45;;;22.80;46.40;;;;;;5094538;28;20304;-57
2024/02/08 05:34:50;;;;;;;9.45;2.28;;;22.80;46.40;;;;;;5093837;28;20186;-55
2024/02/08 05:37:17;;;;;;;9.88;3.13;;;22.90;46.40;;;;;;5092583;28;20214;-56
2024/02/08 05:39:48;;;;;;;10.95;2.67;;;22.90;46.40;;;;;;5093823;28;20672;-56
2024/02/08 05:42:17;;;;;;;9.32;2.22;;;22.90;46.20;;;;;;5093751;28;20221;-54
2024/02/08 05:44:45;;;;;;;9.60;2.60;;;22.90;46.20;;;;;;5093552;28;20710;-55
2024/02/08 05:47:15;;;;;;;10.52;2.67;;;23.00;46.20;;;;;;5094063;28;20220;-54
2024/02/08 05:49:48;;;;;;;9.43;2.13;;;23.00;46.10;;;;;;5091792;28;20183;-53
2024/02/08 05:52:16;;;;;;;5.75;2.25;;;23.00;46.10;;;;;;5094008;28;20213;-56
2024/02/08 05:54:45;;;;;;;9.73;2.67;;;23.00;46.70;;;;;;5093498;28;20746;-55
2024/02/08 05:57:13;;;;;;;13.57;2.97;;;23.00;46.10;;;;;;5093833;28;20365;-55
2024/02/08 05:59:44;;;;;;;14.70;3.33;;;22.90;46.10;;;;;;5093179;28;20186;-54
2024/02/08 06:02:22;;;;;;;10.95;2.60;;;22.90;46.20;;;;;;5091917;28;20271;-54
2024/02/08 06:04:59;;;;;;;10.32;2.85;;;22.90;46.20;;;;;;5093297;28;20256;-54
2024/02/08 06:07:29;;;;;;;8.65;2.75;;;22.90;46.30;;;;;;5091930;28;20218;-56
2024/02/08 06:10:13;;;;;;;10.40;2.60;;;22.80;46.20;;;;;;5093432;28;20489;-52
2024/02/08 06:12:43;;;;;;;11.15;2.38;;;22.80;46.30;;;;;;5093241;28;20246;-55
2024/02/08 06:15:24;;;;;;;12.07;3.00;;;22.80;46.30;;;;;;5093003;28;20234;-55
2024/02/08 06:17:57;;;;;;;8.77;2.72;;;22.80;46.30;;;;;;5091665;28;20559;-54
2024/02/08 06:20:33;;;;;;;11.40;3.10;;;22.80;46.30;;;;;;5093121;28;20190;-54
2024/02/08 06:23:15;;;;;;;11.45;2.65;;;22.80;46.30;;;;;;5093075;28;20189;-55
2024/02/08 06:25:45;;;;;;;16.35;3.45;;;22.80;46.40;;;;;;5092332;28;20237;-56
2024/02/08 06:28:11;;;;;;;13.13;2.78;;;22.80;46.40;;;;;;5093070;28;20221;-53
2024/02/08 06:30:48;;;;;;;11.63;3.08;;;22.80;46.40;;;;;;5093107;28;20236;-54
2024/02/08 06:33:25;;;;;;;18.65;3.63;;;22.80;46.40;;;;;;5092343;28;20586;-53
2024/02/08 06:35:56;;;;;;;11.55;3.25;;;22.80;46.40;;;;;;5090702;28;20213;-57
2024/02/08 06:38:40;;;;;;;13.98;3.00;;;22.80;46.40;;;;;;5092397;28;20645;-53
2024/02/08 06:41:23;;;;;;;11.15;3.05;;;22.80;46.40;;;;;;5092341;28;20218;-55
2024/02/08 06:43:57;;;;;;;13.43;2.90;;;22.80;46.40;;;;;;5091336;28;20232;-51
2024/02/08 06:46:47;;;;;;;13.90;3.38;;;22.80;46.40;;;;;;5092646;28;20260;-55
2024/02/08 07:41:40;;;;;;;10.52;2.75;;;22.80;46.40;;;;;;5090803;28;20699;-56
2024/02/08 07:44:09;;;;;;;9.95;2.70;;;22.80;46.40;;;;;;5090260;28;20244;-55
2024/02/08 07:46:40;;;;;;;9.27;2.78;;;22.80;46.40;;;;;;5093446;28;20249;-56
2024/02/08 07:49:07;;;;;;;27.45;3.85;;;22.80;46.40;;;;;;5096226;28;20198;-56
2024/02/08 07:51:43;;;;;;;13.93;3.15;;;22.80;47.20;;;;;;5095845;28;20255;-56
2024/02/08 07:54:20;;;;;;;9.25;2.72;;;22.70;46.70;;;;;;5094182;28;20185;-55
2024/02/08 07:56:47;;;;;;;14.23;2.60;;;22.70;46.70;;;;;;5095604;28;20718;-53
2024/02/08 07:59:16;;;;;;;8.73;2.28;;;22.70;46.70;;;;;;5095883;28;20614;-56
2024/02/08 08:01:49;;;;;;;13.02;3.08;;;22.70;46.70;;;;;;5095078;28;20730;-55
2024/02/08 08:04:41;;;;;;;13.50;2.92;;;22.70;46.70;;;;;;5091517;28;20575;-54
2024/02/08 08:07:09;;;;;;;7.47;2.28;;;22.70;46.80;;;;;;5095504;28;20218;-56
2024/02/08 08:09:37;;;;;;;10.25;2.70;;;22.70;46.80;;;;;;5093388;28;20194;-56
2024/02/08 08:12:05;;;;;;;11.02;2.75;;;22.80;46.90;;;;;;5095121;28;20224;-56
2024/02/08 08:17:32;;;;;;;9.80;2.55;;;22.90;47.00;;;;;;5094695;28;20218;-54
2024/02/08 08:20:04;;;;;;;10.25;2.53;;;23.00;47.10;;;;;;5094569;28;20202;-55
2024/02/08 08:22:54;;;;;;;8.98;2.70;;;23.00;47.00;;;;;;5095381;28;20220;-56
2024/02/08 08:25:29;;;;;;;13.02;2.70;;;23.00;46.90;;;;;;5094648;28;20585;-55
2024/02/08 08:28:29;;;;;;;14.75;2.58;;;23.10;46.90;;;;;;5085442;28;20331;-56
2024/02/08 08:31:08;;;;;;;9.63;2.65;;;23.10;46.80;;;;;;5049649;28;20293;-56
2024/02/08 08:36:34;;;;;;;12.27;2.50;;;23.10;46.80;;;;;;5088262;28;20262;-58
2024/02/08 08:41:54;;;;;;;8.25;2.45;;;23.10;46.90;;;;;;5049197;28;20279;-54
2024/02/08 08:44:30;;;;;;;10.05;2.55;;;23.10;47.00;;;;;;5055511;28;20211;-54
2024/02/08 08:47:00;;;;;;;9.90;2.25;;;23.10;47.00;;;;;;4972137;28;20222;-55
2024/02/08 08:49:39;;;;;;;11.43;2.95;;;23.10;47.10;;;;;;5049413;28;20533;-59
2024/02/08 08:52:23;;;;;;;8.77;2.40;;;23.20;47.20;;;;;;4961092;28;20218;-57
2024/02/08 08:54:57;;;;;;;8.45;3.03;;;23.20;46.90;;;;;;5019558;28;20278;-56
2024/02/08 08:57:26;;;;;;;8.40;2.30;;;23.20;47.00;;;;;;5044043;28;20720;-49
2024/02/08 08:59:56;;;;;;;6.97;2.15;;;23.20;47.00;;;;;;5041057;28;20282;-53
2024/02/08 09:02:23;;;;;;;6.32;2.40;;;23.20;47.00;;;;;;5041428;28;20223;-61
2024/02/08 09:04:51;;;;;;;9.80;2.17;;;23.20;47.00;;;;;;5045906;28;20743;-57
2024/02/08 09:07:18;;;;;;;9.70;2.35;;;23.20;47.10;;;;;;5045378;28;20215;-55
2024/02/08 09:10:01;;;;;;;7.97;2.10;;;23.20;47.10;;;;;;5046813;28;20198;-51
2024/02/08 09:12:36;;;;;;;6.05;2.00;;;23.20;47.20;;;;;;5044923;28;20227;-54
2024/02/08 09:15:19;;;;;;;7.30;2.08;;;23.20;47.20;;;;;;5046428;28;20241;-54
2024/02/08 09:17:52;;;;;;;8.13;2.00;;;23.20;47.20;;;;;;5046359;28;20225;-51
2024/02/08 09:20:25;;;;;;;8.15;2.42;;;23.20;47.20;;;;;;5087053;28;20194;-49
2024/02/08 09:22:53;;;;;;;7.22;2.22;;;23.20;47.20;;;;;;5087008;28;20304;-51
2024/02/08 09:25:21;;;;;;;9.10;2.15;;;23.20;47.20;;;;;;5084930;28;20311;-55
2024/02/08 09:27:54;;;;;;;6.15;2.00;;;23.20;47.20;;;;;;5089135;28;20755;-54
2024/02/08 09:30:37;;;;;;;7.43;2.05;;;23.10;47.10;;;;;;5087076;28;20293;-49
2024/02/08 09:33:13;;;;;;;7.47;2.10;;;23.20;47.20;;;;;;5088041;28;20717;-46
2024/02/08 09:35:42;;;;;;;10.05;2.45;;;23.20;47.20;;;;;;5086753;28;20193;-46
2024/02/08 09:38:09;;;;;;;5.45;2.10;;;23.10;47.10;;;;;;5080199;28;20222;-49
2024/02/08 09:40:45;;;;;;;8.48;2.20;;;23.20;47.20;;;;;;5088323;28;20209;-51
2024/02/08 09:43:18;;;;;;;7.32;1.90;;;23.20;47.20;;;;;;5087971;28;20214;-50
2024/02/08 09:45:46;;;;;;;5.32;1.48;;;23.30;47.30;;;;;;5086656;28;20221;-56
2024/02/08 09:48:25;;;;;;;6.43;2.00;;;23.30;47.30;;;;;;5083117;28;20269;-49
2024/02/08 09:50:59;;;;;;;4.72;1.70;;;23.40;47.30;;;;;;5079357;28;20216;-45
2024/02/08 09:53:29;;;;;;;8.23;1.88;;;23.40;47.20;;;;;;5088793;28;20221;-52
2024/02/08 09:56:01;;;;;;;5.72;2.10;;;23.40;47.20;;;;;;5088220;28;20198;-49
2024/02/08 09:58:35;;;;;;;4.50;1.70;;;23.40;47.10;;;;;;5089977;28;20217;-52
2024/02/08 10:01:21;;;;;;;6.68;1.58;;;23.40;47.10;;;;;;5088157;28;20670;-47
2024/02/08 10:03:49;;;;;;;5.40;1.88;;;23.40;47.10;;;;;;5089769;28;20270;-50
2024/02/08 10:06:24;;;;;;;11.48;2.00;;;23.40;47.10;;;;;;5087065;28;20742;-51
2024/02/08 10:08:54;;;;;;;8.70;1.90;;;23.40;47.20;;;;;;5087905;28;20201;-50
2024/02/08 10:11:27;;;;;;;5.20;1.45;;;23.40;47.20;;;;;;5088532;28;20194;-49
2024/02/08 10:14:01;;;;;;;5.28;1.40;;;23.40;47.30;;;;;;5089264;28;20286;-51
2024/02/08 10:16:42;;;;;;;6.10;1.85;;;23.50;47.40;;;;;;5087292;28;20236;-48
2024/02/08 10:22:00;;;;;;;3.85;1.50;;;23.40;47.40;;;;;;5081190;28;20675;-53
2024/02/08 10:24:44;;;;;;;4.68;1.50;;;23.40;47.40;;;;;;5087113;28;20544;-54
2024/02/08 10:27:19;;;;;;;8.98;1.30;;;23.50;47.50;;;;;;5087323;28;20233;-59
2024/02/08 10:29:56;;;;;;;3.20;1.27;;;23.50;47.50;;;;;;5087619;28;20777;-56
2024/02/08 10:32:27;;;;;;;5.38;1.40;;;23.40;47.50;;;;;;5087819;28;20268;-57
2024/02/08 10:35:13;;;;;;;6.18;1.30;;;23.50;47.60;;;;;;5082428;28;20186;-50
2024/02/08 10:37:49;;;;;;;3.22;1.23;;;23.50;47.60;;;;;;5091178;28;20230;-53
2024/02/08 10:40:32;;;;;;;4.55;1.35;;;23.50;47.60;;;;;;5091076;28;20215;-55
2024/02/08 10:43:00;;;;;;;3.42;1.38;;;23.50;47.60;;;;;;5092218;28;20287;-56
2024/02/08 10:45:32;;;;;;;6.25;1.38;;;23.50;47.60;;;;;;5090027;28;20296;-56
2024/02/08 10:48:03;;;;;;;5.68;1.38;;;23.50;47.60;;;;;;5091481;28;20221;-55
2024/02/08 10:50:34;;;;;;;4.28;1.15;;;23.50;47.80;;;;;;5090253;28;20189;-53
2024/02/08 10:53:03;;;;;;;4.63;1.30;;;23.50;47.60;;;;;;5091800;28;20214;-56
2024/02/08 10:55:36;;;;;;;4.60;0.90;;;23.50;47.60;;;;;;5092089;28;20276;-53
2024/02/08 11:01:06;;;;;;;2.70;1.20;;;23.50;47.70;;;;;;5087813;28;20203;-56
2024/02/08 11:03:36;;;;;;;3.17;1.20;;;23.50;47.70;;;;;;5090631;28;20217;-55
2024/02/08 11:06:08;;;;;;;4.03;1.27;;;23.50;47.70;;;;;;5091955;28;20225;-55
2024/02/08 11:08:50;;;;;;;7.95;1.40;;;23.50;47.80;;;;;;5091955;28;20249;-56
2024/02/08 11:11:21;;;;;;;3.42;1.00;;;23.50;47.80;;;;;;5091962;28;20641;-54
2024/02/08 11:13:53;;;;;;;3.72;1.13;;;23.50;47.80;;;;;;5091767;28;20230;-55
2024/02/08 11:16:27;;;;;;;3.30;1.30;;;23.40;47.70;;;;;;5091830;28;20239;-55
2024/02/08 11:18:55;;;;;;;3.55;1.20;;;23.40;47.70;;;;;;5079293;28;20594;-52
2024/02/08 11:21:42;;;;;;;4.32;1.25;;;23.40;47.70;;;;;;5078308;28;20228;-49
2024/02/08 11:24:09;;;;;;;6.78;1.02;;;23.40;47.80;;;;;;5071282;28;20553;-55
2024/02/08 11:26:36;;;;;;;3.35;1.63;;;23.40;47.80;;;;;;5082760;28;20300;-55
2024/02/08 11:29:04;;;;;;;9.05;1.42;;;23.30;47.60;;;;;;5090339;28;20222;-54
2024/02/08 11:31:41;;;;;;;6.47;1.42;;;23.40;47.60;;;;;;5091339;28;20189;-58
2024/02/08 11:34:15;;;;;;;6.80;3.70;;;23.30;47.60;;;;;;5090280;28;20535;-57
2024/02/08 11:36:42;;;;;;;9.80;4.32;;;23.30;47.50;;;;;;5090890;28;20217;-55
2024/02/08 11:39:28;;;;;;;6.13;3.50;;;23.30;47.50;;;;;;5089729;28;20254;-55
2024/02/08 11:42:00;;;;;;;9.23;2.92;;;23.40;47.50;;;;;;5091645;28;20707;-54
2024/02/08 11:44:29;;;;;;;4.05;2.75;;;23.30;47.40;;;;;;5091191;28;20239;-56
2024/02/08 11:46:59;;;;;;;6.50;2.40;;;23.30;47.40;;;;;;5090901;28;20217;-56
2024/02/08 11:49:35;;;;;;;5.25;2.60;;;23.40;47.40;;;;;;5088703;28;20182;-55
2024/02/08 11:52:07;;;;;;;4.07;2.00;;;23.40;47.40;;;;;;5089321;28;20316;-56
2024/02/08 11:54:38;;;;;;;4.78;2.30;;;23.30;47.30;;;;;;5091016;28;20190;-56
2024/02/08 11:57:06;;;;;;;5.35;2.30;;;23.40;47.40;;;;;;5093147;28;20209;-56
2024/02/08 11:59:36;;;;;;;6.13;2.00;;;23.30;47.30;;;;;;5109491;28;20738;-52
2024/02/08 12:02:08;;;;;;;7.07;2.20;;;23.30;47.30;;;;;;5091102;28;20589;-55
2024/02/08 12:04:36;;;;;;;14.20;2.33;;;23.40;47.40;;;;;;5090137;28;20190;-56
2024/02/08 12:07:07;;;;;;;8.27;1.90;;;23.40;47.40;;;;;;5090465;28;20226;-56
2024/02/08 12:09:34;;;;;;;6.65;1.98;;;23.40;47.40;;;;;;5090953;28;20213;-54
2024/02/08 12:12:03;;;;;;;9.35;2.10;;;23.40;47.40;;;;;;5089572;28;20213;-51
2024/02/08 12:14:29;;;;;;;8.98;1.90;;;23.40;47.30;;;;;;5088683;28;20230;-57
2024/02/08 12:16:58;;;;;;;6.25;2.08;;;23.50;47.40;;;;;;5091109;28;20649;-58
2024/02/08 12:19:28;;;;;;;12.05;2.17;;;23.50;47.30;;;;;;5081207;28;20291;-56
2024/02/08 12:21:57;;;;;;;4.78;1.60;;;23.60;47.20;;;;;;5073947;28;20191;-52
2024/02/08 12:24:24;;;;;;;12.18;2.10;;;23.60;47.00;;;;;;5070548;28;20213;-55
2024/02/08 12:26:54;;;;;;;5.00;1.77;;;23.60;46.90;;;;;;5084057;28;20571;-52
2024/02/08 12:29:25;;;;;;;7.15;2.40;;;23.70;46.90;;;;;;5072708;28;20575;-58
2024/02/08 12:31:54;;;;;;;6.40;1.90;;;23.70;47.50;;;;;;5070934;28;20276;-56
2024/02/08 12:34:31;;;;;;;5.53;2.38;;;23.70;46.90;;;;;;5078799;28;20229;-52
2024/02/08 12:37:04;;;;;;;7.45;2.22;;;23.60;46.80;;;;;;5093931;28;20190;-55
2024/02/08 12:39:34;;;;;;;4.40;1.90;;;23.60;46.90;;;;;;5112136;28;20234;-55
2024/02/08 12:42:04;;;;;;;7.38;2.20;;;23.60;47.00;;;;;;5114653;28;20186;-53
2024/02/08 12:44:34;;;;;;;5.90;1.80;;;23.60;46.90;;;;;;5114253;28;20185;-54
2024/02/08 12:47:05;;;;;;;7.35;2.30;;;23.60;47.00;;;;;;5097860;28;20218;-57
2024/02/08 12:49:33;;;;;;;8.30;2.38;;;23.50;46.90;;;;;;5092905;28;20217;-54
2024/02/08 12:52:03;;;;;;;9.48;2.50;;;23.60;47.00;;;;;;5091288;28;20593;-55
2024/02/08 12:54:30;;;;;;;7.53;2.20;;;23.50;46.90;;;;;;5094008;28;20281;-56
2024/02/08 12:57:10;;;;;;;9.93;2.63;;;23.60;47.00;;;;;;5093762;28;20217;-55
2024/02/08 12:59:38;;;;;;;10.13;2.28;;;23.50;47.00;;;;;;5092738;28;20231;-56
2024/02/08 13:02:09;;;;;;;7.07;2.33;;;23.50;46.90;;;;;;5083218;28;20210;-52
2024/02/08 13:04:43;;;;;;;10.13;2.53;;;23.60;47.00;;;;;;5087831;28;20301;-55
2024/02/08 13:07:14;;;;;;;10.35;3.03;;;23.60;47.00;;;;;;5090525;28;20318;-55
2024/02/08 13:09:43;;;;;;;6.65;2.22;;;23.60;47.10;;;;;;5084717;28;20555;-55
2024/02/08 13:12:17;;;;;;;11.25;2.50;;;23.60;47.20;;;;;;5090615;28;20225;-56
2024/02/08 13:14:56;;;;;;;12.57;2.70;;;23.70;47.20;;;;;;5097028;28;20222;-54
2024/02/08 13:17:26;;;;;;;9.48;2.90;;;23.70;47.20;;;;;;5079036;28;20313;-55
2024/02/08 13:19:55;;;;;;;14.32;2.80;;;23.70;47.10;;;;;;5090117;28;20202;-56
2024/02/08 13:22:24;;;;;;;7.35;2.25;;;23.80;47.20;;;;;;5088925;28;20217;-57
2024/02/08 13:24:52;;;;;;;9.85;2.67;;;23.70;47.40;;;;;;5091597;28;20186;-51
2024/02/08 13:27:24;;;;;;;12.80;3.17;;;23.70;47.30;;;;;;5091305;28;20229;-58
2024/02/08 13:29:52;;;;;;;8.95;2.53;;;23.80;47.40;;;;;;5091543;28;20191;-57
2024/02/08 13:32:19;;;;;;;11.98;2.80;;;23.80;47.30;;;;;;5091209;28;20222;-55
2024/02/08 13:34:48;;;;;;;15.57;2.97;;;23.80;47.30;;;;;;5102781;28;20194;-53
2024/02/08 13:37:16;;;;;;;9.50;2.42;;;23.80;47.80;;;;;;5087992;28;20228;-56
2024/02/08 13:39:45;;;;;;;11.65;2.83;;;23.80;47.40;;;;;;5089377;28;20752;-55
2024/02/08 13:42:15;;;;;;;7.00;2.45;;;23.80;47.40;;;;;;5088854;28;20189;-51
2024/02/08 13:44:44;;;;;;;7.75;2.33;;;23.80;47.20;;;;;;5087614;28;20198;-52
2024/02/08 13:47:12;;;;;;;23.05;2.60;;;23.80;47.60;;;;;;5089185;28;20209;-58
2024/02/08 13:49:39;;;;;;;11.65;3.38;;;23.80;47.40;;;;;;5087020;28;20200;-53
2024/02/08 13:52:06;;;;;;;10.00;2.67;;;23.90;47.40;;;;;;5088330;28;20193;-54
2024/02/08 13:54:37;;;;;;;11.40;3.28;;;23.90;47.40;;;;;;5089312;28;20198;-56
2024/02/08 13:57:14;;;;;;;14.30;2.60;;;23.90;47.30;;;;;;5084639;28;20205;-53
2024/02/08 13:59:46;;;;;;;8.18;3.10;;;23.90;47.20;;;;;;5075166;28;20191;-56
2024/02/08 14:02:15;;;;;;;9.68;2.78;;;23.90;47.20;;;;;;5085898;28;20281;-56
2024/02/08 14:04:49;;;;;;;8.88;2.85;;;23.90;47.10;;;;;;5088174;28;20198;-55
2024/02/08 14:07:17;;;;;;;10.77;3.00;;;23.90;47.20;;;;;;5089276;28;20216;-56
2024/02/08 14:09:58;;;;;;;10.10;2.25;;;23.90;47.90;;;;;;5034754;28;20737;-50
2024/02/08 14:12:27;;;;;;;9.15;2.80;;;23.90;47.30;;;;;;5065467;28;20217;-56
2024/02/08 14:14:55;;;;;;;8.27;2.67;;;23.90;47.30;;;;;;5084049;28;20755;-55
2024/02/08 14:17:27;;;;;;;5.63;2.22;;;23.90;47.30;;;;;;5086719;28;20679;-52
2024/02/08 14:19:59;;;;;;;10.23;2.65;;;23.80;47.20;;;;;;5089464;28;20186;-55
2024/02/08 14:22:29;;;;;;;9.73;2.97;;;23.80;47.30;;;;;;5051547;28;20190;-57
2024/02/08 14:24:58;;;;;;;9.43;2.40;;;23.80;47.20;;;;;;5054350;28;20205;-57
2024/02/08 14:27:30;;;;;;;7.47;2.67;;;23.90;47.20;;;;;;5052429;28;20316;-54
2024/02/08 14:30:05;;;;;;;7.72;2.60;;;23.90;47.20;;;;;;5054219;28;20198;-54
2024/02/08 14:32:33;;;;;;;10.45;2.60;;;23.90;47.30;;;;;;5088754;28;20283;-54
2024/02/08 14:35:16;;;;;;;10.20;3.10;;;23.80;47.10;;;;;;5069096;28;20721;-55
2024/02/08 14:37:46;;;;;;;8.20;2.60;;;23.80;47.20;;;;;;5068682;28;20295;-55
2024/02/08 14:40:13;;;;;;;11.73;2.85;;;23.80;47.20;;;;;;5074008;28;20206;-54
2024/02/08 14:42:43;;;;;;;7.85;2.55;;;23.80;47.10;;;;;;5085172;28;20224;-48
2024/02/08 14:45:11;;;;;;;6.88;2.70;;;23.80;47.10;;;;;;5086381;28;20208;-54
2024/02/08 14:47:41;;;;;;;10.20;2.63;;;23.80;47.20;;;;;;5086592;28;20225;-51
2024/02/08 14:50:48;;;;;;;7.78;2.33;;;23.80;47.20;;;;;;5089185;28;20261;-51
2024/02/08 14:53:00;;;;;;;6.95;2.13;;;23.80;47.30;;;;;;5087550;28;20214;-56
2024/02/08 14:55:34;;;;;;;8.05;2.70;;;23.80;47.40;;;;;;5093458;28;20273;-52